createdAt,value
2017-08-02T00:00:34.635Z,99.99
2017-08-02T00:01:34.636Z,99.99
2017-08-02T00:02:34.632Z,99.99
2017-08-02T00:03:34.631Z,99.99
2017-08-02T00:04:34.630Z,99.99
2017-08-02T00:05:34.322Z,99.99
2017-08-02T00:06:34.630Z,99.99
2017-08-02T00:07:34.317Z,99.99
2017-08-02T00:08:34.624Z,99.99
2017-08-02T00:09:34.621Z,99.99
2017-08-02T00:10:34.720Z,99.99
2017-08-02T00:11:34.618Z,99.99
2017-08-02T00:12:34.613Z,99.99
2017-08-02T00:13:34.615Z,99.99
2017-08-02T00:14:34.612Z,99.99
2017-08-02T00:15:34.813Z,99.99
2017-08-02T00:16:34.709Z,99.99
2017-08-02T00:17:34.609Z,99.99
2017-08-02T00:18:34.500Z,99.99
2017-08-02T00:19:34.602Z,99.99
2017-08-02T00:20:34.701Z,99.99
2017-08-02T00:21:34.599Z,99.99
2017-08-02T00:22:34.600Z,99.99
2017-08-02T00:23:34.702Z,99.99
2017-08-02T00:24:34.290Z,99.99
2017-08-02T00:25:34.600Z,99.99
2017-08-02T00:26:34.595Z,99.99
2017-08-02T00:27:34.594Z,99.99
2017-08-02T00:28:34.286Z,99.99
2017-08-02T00:29:34.283Z,99.99
2017-08-02T00:30:34.280Z,99.99
2017-08-02T00:31:34.584Z,99.99
2017-08-02T00:32:34.687Z,99.99
2017-08-02T00:33:34.581Z,99.99
2017-08-02T00:34:34.580Z,99.99
2017-08-02T00:35:34.274Z,99.99
2017-08-02T00:36:34.723Z,99.99
2017-08-02T00:37:34.575Z,99.99
2017-08-02T00:38:34.573Z,99.99
2017-08-02T00:39:34.575Z,99.99
2017-08-02T00:40:34.667Z,99.99
2017-08-02T00:41:34.719Z,99.99
2017-08-02T00:42:34.564Z,99.99
2017-08-02T00:43:34.566Z,99.99
2017-08-02T00:44:34.564Z,99.99
2017-08-02T00:45:34.560Z,99.99
2017-08-02T00:46:34.557Z,99.99
2017-08-02T00:47:34.553Z,99.99
2017-08-02T00:48:34.652Z,99.99
2017-08-02T00:49:34.654Z,99.99
2017-08-02T00:50:34.550Z,99.99
2017-08-02T00:51:34.647Z,99.99
2017-08-02T00:52:34.550Z,99.99
2017-08-02T00:53:34.544Z,99.99
2017-08-02T00:54:34.541Z,99.99
2017-08-02T00:55:34.542Z,99.99
2017-08-02T00:56:34.640Z,99.99
2017-08-02T00:57:34.543Z,99.99
2017-08-02T00:58:34.538Z,99.99
2017-08-02T00:59:34.538Z,99.99
2017-08-02T01:00:34.536Z,99.99
2017-08-02T01:01:34.532Z,99.99
2017-08-02T01:02:34.523Z,99.99
2017-08-02T01:03:34.528Z,99.99
2017-08-02T01:04:34.523Z,99.99
2017-08-02T01:05:34.524Z,99.99
2017-08-02T01:06:34.524Z,99.99
2017-08-02T01:07:34.617Z,99.99
2017-08-02T01:08:34.519Z,99.99
2017-08-02T01:09:34.515Z,99.99
2017-08-02T01:10:34.520Z,99.99
2017-08-02T01:11:34.514Z,99.99
2017-08-02T01:12:34.510Z,99.99
2017-08-02T01:13:34.517Z,99.99
2017-08-02T01:14:34.508Z,99.99
2017-08-02T01:15:34.513Z,99.99
2017-08-02T01:16:34.198Z,99.99
2017-08-02T01:17:34.504Z,99.99
2017-08-02T01:18:34.500Z,99.99
2017-08-02T01:19:34.498Z,99.99
2017-08-02T01:20:34.497Z,99.99
2017-08-02T01:21:34.514Z,99.99
2017-08-02T01:22:34.491Z,99.99
2017-08-02T01:23:34.493Z,99.99
2017-08-02T01:24:34.183Z,99.99
2017-08-02T01:25:34.488Z,99.99
2017-08-02T01:26:34.490Z,99.99
2017-08-02T01:27:34.583Z,99.99
2017-08-02T01:28:34.481Z,99.99
2017-08-02T01:29:34.480Z,99.99
2017-08-02T01:30:34.478Z,99.99
2017-08-02T01:31:34.478Z,99.99
2017-08-02T01:32:34.473Z,99.99
2017-08-02T01:33:34.572Z,99.99
2017-08-02T01:34:34.468Z,99.99
2017-08-02T01:35:34.469Z,99.99
2017-08-02T01:36:34.468Z,99.99
2017-08-02T01:37:34.465Z,99.99
2017-08-02T01:38:34.563Z,99.99
2017-08-02T01:39:34.460Z,99.99
2017-08-02T01:40:34.460Z,99.99
2017-08-02T01:41:34.460Z,99.99
2017-08-02T01:42:34.455Z,99.99
2017-08-02T01:43:34.155Z,99.99
2017-08-02T01:44:34.850Z,99.99
2017-08-02T01:45:34.447Z,99.99
2017-08-02T01:46:34.451Z,99.99
2017-08-02T01:47:34.546Z,99.99
2017-08-02T01:48:34.441Z,99.99
2017-08-02T01:49:34.541Z,99.99
2017-08-02T01:50:34.441Z,99.99
2017-08-02T01:51:34.433Z,99.99
2017-08-02T01:52:34.538Z,99.99
2017-08-02T01:53:34.532Z,99.99
2017-08-02T01:54:34.431Z,99.99
2017-08-02T01:55:34.428Z,99.99
2017-08-02T01:56:34.528Z,99.99
2017-08-02T01:57:34.423Z,99.99
2017-08-02T01:58:34.421Z,99.99
2017-08-02T01:59:34.522Z,99.99
2017-08-02T02:00:34.417Z,99.99
2017-08-02T02:01:34.418Z,99.99
2017-08-02T02:02:34.414Z,99.99
2017-08-02T02:03:34.410Z,99.99
2017-08-02T02:04:34.409Z,99.99
2017-08-02T02:05:34.411Z,99.99
2017-08-02T02:06:34.407Z,99.99
2017-08-02T02:07:34.503Z,99.99
2017-08-02T02:08:34.401Z,99.99
2017-08-02T02:09:34.400Z,99.99
2017-08-02T02:10:34.398Z,99.99
2017-08-02T02:11:34.495Z,99.99
2017-08-02T02:12:34.395Z,99.99
2017-08-02T02:13:34.391Z,99.99
2017-08-02T02:14:34.488Z,99.99
2017-08-02T02:15:34.489Z,99.99
2017-08-02T02:16:34.182Z,99.99
2017-08-02T02:17:34.385Z,99.99
2017-08-02T02:18:34.385Z,99.99
2017-08-02T02:19:34.478Z,99.99
2017-08-02T02:20:34.386Z,99.99
2017-08-02T02:21:34.480Z,99.99
2017-08-02T02:22:34.378Z,99.99
2017-08-02T02:23:34.066Z,99.99
2017-08-02T02:24:34.472Z,99.99
2017-08-02T02:25:34.366Z,99.99
2017-08-02T02:26:34.369Z,99.99
2017-08-02T02:27:34.366Z,99.99
2017-08-02T02:28:34.379Z,99.99
2017-08-02T02:29:34.361Z,99.99
2017-08-02T02:30:34.356Z,99.99
2017-08-02T02:31:34.356Z,99.99
2017-08-02T02:32:34.352Z,99.99
2017-08-02T02:33:34.351Z,99.99
2017-08-02T02:34:34.350Z,99.99
2017-08-02T02:35:34.350Z,99.99
2017-08-02T02:36:34.444Z,99.99
2017-08-02T02:37:34.444Z,99.99
2017-08-02T02:38:34.338Z,99.99
2017-08-02T02:39:34.340Z,99.99
2017-08-02T02:40:34.341Z,99.99
2017-08-02T02:41:34.336Z,99.99
2017-08-02T02:42:34.335Z,99.99
2017-08-02T02:43:34.328Z,99.99
2017-08-02T02:44:34.331Z,99.99
2017-08-02T02:45:34.333Z,99.99
2017-08-02T02:46:34.018Z,99.99
2017-08-02T02:47:34.321Z,99.99
2017-08-02T02:48:34.421Z,99.99
2017-08-02T02:49:34.325Z,99.99
2017-08-02T02:50:34.317Z,99.99
2017-08-02T02:51:34.313Z,99.99
2017-08-02T02:52:34.312Z,99.99
2017-08-02T02:53:34.310Z,99.99
2017-08-02T02:54:34.305Z,99.99
2017-08-02T02:55:34.405Z,99.99
2017-08-02T02:56:34.457Z,99.99
2017-08-02T02:57:34.301Z,99.99
2017-08-02T02:58:34.298Z,99.99
2017-08-02T02:59:34.297Z,99.99
2017-08-02T03:00:34.299Z,99.99
2017-08-02T03:01:34.295Z,99.99
2017-08-02T03:02:34.089Z,99.99
2017-08-02T03:03:34.083Z,99.99
2017-08-02T03:04:34.387Z,99.99
2017-08-02T03:05:34.285Z,99.99
2017-08-02T03:06:33.976Z,99.99
2017-08-02T03:07:34.280Z,99.99
2017-08-02T03:08:34.279Z,99.99
2017-08-02T03:09:34.277Z,99.99
2017-08-02T03:10:34.281Z,99.99
2017-08-02T03:11:34.369Z,99.99
2017-08-02T03:12:34.276Z,99.99
2017-08-02T03:13:34.269Z,99.99
2017-08-02T03:14:34.268Z,99.99
2017-08-02T03:15:34.265Z,99.99
2017-08-02T03:16:34.364Z,99.99
2017-08-02T03:17:34.261Z,99.99
2017-08-02T03:18:34.255Z,99.99
2017-08-02T03:19:34.260Z,99.99
2017-08-02T03:20:34.355Z,99.99
2017-08-02T03:21:34.251Z,99.99
2017-08-02T03:22:34.250Z,99.99
2017-08-02T03:23:34.397Z,99.99
2017-08-02T03:24:33.944Z,99.99
2017-08-02T03:25:33.939Z,99.99
2017-08-02T03:26:34.244Z,99.99
2017-08-02T03:27:34.238Z,99.99
2017-08-02T03:28:34.234Z,99.99
2017-08-02T03:29:33.931Z,99.99
2017-08-02T03:30:34.241Z,99.99
2017-08-02T03:31:34.334Z,99.99
2017-08-02T03:32:34.228Z,99.99
2017-08-02T03:33:34.227Z,99.99
2017-08-02T03:34:34.475Z,99.99
2017-08-02T03:35:34.222Z,99.99
2017-08-02T03:36:34.218Z,99.99
2017-08-02T03:37:34.320Z,99.99
2017-08-02T03:38:34.317Z,99.99
2017-08-02T03:39:34.316Z,99.99
2017-08-02T03:40:34.316Z,99.99
2017-08-02T03:41:34.214Z,99.99
2017-08-02T03:42:34.208Z,99.99
2017-08-02T03:43:34.209Z,99.99
2017-08-02T03:44:34.206Z,99.99
2017-08-02T03:45:34.206Z,99.99
2017-08-02T03:46:34.200Z,99.99
2017-08-02T03:47:34.299Z,99.99
2017-08-02T03:48:34.197Z,99.99
2017-08-02T03:49:34.194Z,99.99
2017-08-02T03:50:34.194Z,99.99
2017-08-02T03:51:34.198Z,99.99
2017-08-02T03:52:34.186Z,99.99
2017-08-02T03:53:34.186Z,99.99
2017-08-02T03:54:34.182Z,99.99
2017-08-02T03:55:34.381Z,99.99
2017-08-02T03:56:34.186Z,99.99
2017-08-02T03:57:34.277Z,99.99
2017-08-02T03:58:34.174Z,99.99
2017-08-02T03:59:34.173Z,99.99
2017-08-02T04:00:33.867Z,99.99
2017-08-02T04:01:34.169Z,99.99
2017-08-02T04:02:34.266Z,99.99
2017-08-02T04:03:34.167Z,99.99
2017-08-02T04:04:34.162Z,99.99
2017-08-02T04:05:34.162Z,99.99
2017-08-02T04:06:34.157Z,99.99
2017-08-02T04:07:34.263Z,99.99
2017-08-02T04:08:34.158Z,99.99
2017-08-02T04:09:34.150Z,99.99
2017-08-02T04:10:34.248Z,99.99
2017-08-02T04:11:34.149Z,99.99
2017-08-02T04:12:34.249Z,99.99
2017-08-02T04:13:34.143Z,99.99
2017-08-02T04:14:34.139Z,99.99
2017-08-02T04:15:34.138Z,99.99
2017-08-02T04:16:34.137Z,99.99
2017-08-02T04:17:34.133Z,99.99
2017-08-02T04:18:34.132Z,99.99
2017-08-02T04:19:34.128Z,99.99
2017-08-02T04:20:34.231Z,99.99
2017-08-02T04:21:34.125Z,99.99
2017-08-02T04:22:34.229Z,99.99
2017-08-02T04:23:34.128Z,99.99
2017-08-02T04:24:34.218Z,99.99
2017-08-02T04:25:34.120Z,99.99
2017-08-02T04:26:34.115Z,99.99
2017-08-02T04:27:33.807Z,99.99
2017-08-02T04:28:34.110Z,99.99
2017-08-02T04:29:34.209Z,99.99
2017-08-02T04:30:34.206Z,99.99
2017-08-02T04:31:34.204Z,99.99
2017-08-02T04:32:34.101Z,99.99
2017-08-02T04:33:34.101Z,99.99
2017-08-02T04:34:33.790Z,99.99
2017-08-02T04:35:34.194Z,99.99
2017-08-02T04:36:34.097Z,99.99
2017-08-02T04:37:34.193Z,99.99
2017-08-02T04:38:34.092Z,99.99
2017-08-02T04:39:34.094Z,99.99
2017-08-02T04:40:34.185Z,99.99
2017-08-02T04:41:34.082Z,99.99
2017-08-02T04:42:34.078Z,99.99
2017-08-02T04:43:34.088Z,99.99
2017-08-02T04:44:34.227Z,99.99
2017-08-02T04:45:34.077Z,99.99
2017-08-02T04:46:34.079Z,99.99
2017-08-02T04:47:34.073Z,99.99
2017-08-02T04:48:34.069Z,99.99
2017-08-02T04:49:34.266Z,99.99
2017-08-02T04:50:34.066Z,99.99
2017-08-02T04:51:34.067Z,99.99
2017-08-02T04:52:34.065Z,99.99
2017-08-02T04:53:34.060Z,99.99
2017-08-02T04:54:34.057Z,99.99
2017-08-02T04:55:34.055Z,99.99
2017-08-02T04:56:34.051Z,99.99
2017-08-02T04:57:34.051Z,99.99
2017-08-02T04:58:34.153Z,99.99
2017-08-02T04:59:34.050Z,99.99
2017-08-02T05:00:34.046Z,99.99
2017-08-02T05:01:34.044Z,99.99
2017-08-02T05:02:34.044Z,99.99
2017-08-02T05:03:34.040Z,99.99
2017-08-02T05:04:34.037Z,99.99
2017-08-02T05:05:34.037Z,99.99
2017-08-02T05:06:34.165Z,99.99
2017-08-02T05:07:34.134Z,99.99
2017-08-02T05:08:34.135Z,99.99
2017-08-02T05:09:34.034Z,99.99
2017-08-02T05:10:34.028Z,99.99
2017-08-02T05:11:34.129Z,99.99
2017-08-02T05:12:34.028Z,99.99
2017-08-02T05:13:34.026Z,99.99
2017-08-02T05:14:34.022Z,99.99
2017-08-02T05:15:34.122Z,99.99
2017-08-02T05:16:34.023Z,99.99
2017-08-02T05:17:33.716Z,99.99
2017-08-02T05:18:34.117Z,99.99
2017-08-02T05:19:34.024Z,99.99
2017-08-02T05:20:34.014Z,99.99
2017-08-02T05:21:34.015Z,99.99
2017-08-02T05:22:34.018Z,99.99
2017-08-02T05:23:34.013Z,99.99
2017-08-02T05:24:34.008Z,99.99
2017-08-02T05:25:34.012Z,99.99
2017-08-02T05:26:33.702Z,99.99
2017-08-02T05:27:33.702Z,99.99
2017-08-02T05:28:33.720Z,99.99
2017-08-02T05:29:34.003Z,99.99
2017-08-02T05:30:34.004Z,99.99
2017-08-02T05:31:34.101Z,99.99
2017-08-02T05:32:34.001Z,99.99
2017-08-02T05:33:33.997Z,99.99
2017-08-02T05:34:34.150Z,99.99
2017-08-02T05:35:34.005Z,99.99
2017-08-02T05:36:33.998Z,99.99
2017-08-02T05:37:33.691Z,99.99
2017-08-02T05:38:34.014Z,99.99
2017-08-02T05:39:33.993Z,99.99
2017-08-02T05:40:33.992Z,99.99
2017-08-02T05:41:34.097Z,99.99
2017-08-02T05:42:34.085Z,99.99
2017-08-02T05:43:33.984Z,99.99
2017-08-02T05:44:33.982Z,99.99
2017-08-02T05:45:33.984Z,99.99
2017-08-02T05:46:33.981Z,99.99
2017-08-02T05:47:33.979Z,99.99
2017-08-02T05:48:33.978Z,99.99
2017-08-02T05:49:33.979Z,99.99
2017-08-02T05:50:33.976Z,99.99
2017-08-02T05:51:33.974Z,99.99
2017-08-02T05:52:33.974Z,99.99
2017-08-02T05:53:34.073Z,99.99
2017-08-02T05:54:33.968Z,99.99
2017-08-02T05:55:33.967Z,99.99
2017-08-02T05:56:33.967Z,99.99
2017-08-02T05:57:33.967Z,99.99
2017-08-02T05:58:33.964Z,99.99
2017-08-02T05:59:33.968Z,99.99
2017-08-02T06:00:33.965Z,99.99
2017-08-02T06:01:33.972Z,99.99
2017-08-02T06:02:34.063Z,99.99
2017-08-02T06:03:33.655Z,99.99
2017-08-02T06:04:33.959Z,99.99
2017-08-02T06:05:33.960Z,99.99
2017-08-02T06:06:33.957Z,99.99
2017-08-02T06:07:33.954Z,99.99
2017-08-02T06:08:33.953Z,99.99
2017-08-02T06:09:33.952Z,99.99
2017-08-02T06:10:33.952Z,99.99
2017-08-02T06:11:33.952Z,99.99
2017-08-02T06:12:33.956Z,99.99
2017-08-02T06:13:33.640Z,99.99
2017-08-02T06:14:33.642Z,99.99
2017-08-02T06:15:33.946Z,99.99
2017-08-02T06:16:34.045Z,99.99
2017-08-02T06:17:33.640Z,99.99
2017-08-02T06:18:33.945Z,99.99
2017-08-02T06:19:33.945Z,99.99
2017-08-02T06:20:33.639Z,99.99
2017-08-02T06:21:33.943Z,99.99
2017-08-02T06:22:33.948Z,99.99
2017-08-02T06:23:33.638Z,99.99
2017-08-02T06:24:33.945Z,99.99
2017-08-02T06:25:33.946Z,99.99
2017-08-02T06:26:33.947Z,99.7
2017-08-02T06:27:33.739Z,99.65
2017-08-02T06:28:33.947Z,99.85
2017-08-02T06:29:33.952Z,99.65
2017-08-02T06:30:33.948Z,99.46
2017-08-02T06:31:33.642Z,99.55
2017-08-02T06:32:33.948Z,99.46
2017-08-02T06:33:33.947Z,98.93
2017-08-02T06:34:33.950Z,98.1
2017-08-02T06:35:34.052Z,98
2017-08-02T06:36:34.051Z,98.49
2017-08-02T06:37:34.059Z,98.35
2017-08-02T06:38:33.952Z,98.73
2017-08-02T06:39:33.952Z,99.17
2017-08-02T06:40:33.956Z,99.46
2017-08-02T06:41:33.652Z,99.99
2017-08-02T06:42:33.954Z,99.99
2017-08-02T06:43:33.955Z,99.95
2017-08-02T06:44:33.959Z,99.12
2017-08-02T06:45:33.959Z,98.34
2017-08-02T06:46:33.962Z,97.71
2017-08-02T06:47:33.960Z,96.78
2017-08-02T06:48:33.960Z,95.28
2017-08-02T06:49:33.961Z,95.13
2017-08-02T06:50:33.960Z,95.23
2017-08-02T06:51:33.658Z,95.42
2017-08-02T06:52:33.967Z,95.28
2017-08-02T06:53:33.657Z,95.76
2017-08-02T06:54:33.660Z,96.25
2017-08-02T06:55:33.967Z,96.59
2017-08-02T06:56:33.967Z,97.13
2017-08-02T06:57:33.970Z,98.63
2017-08-02T06:58:33.764Z,98.49
2017-08-02T06:59:34.080Z,99.37
2017-08-02T07:00:33.970Z,99.51
2017-08-02T07:01:33.970Z,99.99
2017-08-02T07:02:33.667Z,99.75
2017-08-02T07:03:33.975Z,98.54
2017-08-02T07:04:33.984Z,98.29
2017-08-02T07:05:33.975Z,98.05
2017-08-02T07:06:33.870Z,97.76
2017-08-02T07:07:33.976Z,98.39
2017-08-02T07:08:33.974Z,98.19
2017-08-02T07:09:33.976Z,98.29
2017-08-02T07:10:34.080Z,98.49
2017-08-02T07:11:33.976Z,98.34
2017-08-02T07:12:33.677Z,99.12
2017-08-02T07:13:33.977Z,98.68
2017-08-02T07:14:33.978Z,98.58
2017-08-02T07:15:33.772Z,98.78
2017-08-02T07:16:33.985Z,98.88
2017-08-02T07:17:33.986Z,99.02
2017-08-02T07:18:33.986Z,99.17
2017-08-02T07:19:33.997Z,99.99
2017-08-02T07:20:33.979Z,99.99
2017-08-02T07:21:33.987Z,99.99
2017-08-02T07:22:33.980Z,99.99
2017-08-02T07:23:33.986Z,99.99
2017-08-02T07:24:33.982Z,99.99
2017-08-02T07:25:33.977Z,99.99
2017-08-02T07:26:33.983Z,99.99
2017-08-02T07:27:33.981Z,99.99
2017-08-02T07:28:33.985Z,99.99
2017-08-02T07:29:33.983Z,99.99
2017-08-02T07:30:33.984Z,99.99
2017-08-02T07:31:33.979Z,99.99
2017-08-02T07:32:33.980Z,99.99
2017-08-02T07:33:33.981Z,99.99
2017-08-02T07:34:34.089Z,99.99
2017-08-02T07:35:33.980Z,99.99
2017-08-02T07:36:34.081Z,99.99
2017-08-02T07:37:33.984Z,99.99
2017-08-02T07:38:33.980Z,99.99
2017-08-02T07:39:34.088Z,99.99
2017-08-02T07:40:33.977Z,99.99
2017-08-02T07:41:33.974Z,99.99
2017-08-02T07:42:33.980Z,99.99
2017-08-02T07:43:33.980Z,99.99
2017-08-02T07:44:33.982Z,99.99
2017-08-02T07:45:33.976Z,99.99
2017-08-02T07:46:33.980Z,99.99
2017-08-02T07:47:34.076Z,99.99
2017-08-02T07:48:33.976Z,98.39
2017-08-02T07:49:33.977Z,97.22
2017-08-02T07:50:33.976Z,96.2
2017-08-02T07:51:33.975Z,94.3
2017-08-02T07:52:33.973Z,93.37
2017-08-02T07:53:34.125Z,93.02
2017-08-02T07:54:33.970Z,91.47
2017-08-02T07:55:33.974Z,90.44
2017-08-02T07:56:33.978Z,91.61
2017-08-02T07:57:33.972Z,91.75
2017-08-02T07:58:33.972Z,91.55
2017-08-02T07:59:34.009Z,92.04
2017-08-02T08:00:33.973Z,91.02
2017-08-02T08:01:33.974Z,91.31
2017-08-02T08:02:33.968Z,91.5
2017-08-02T08:03:33.970Z,91.06
2017-08-02T08:04:33.969Z,91.35
2017-08-02T08:05:33.972Z,91.94
2017-08-02T08:06:33.967Z,91.84
2017-08-02T08:07:33.968Z,91.06
2017-08-02T08:08:33.969Z,90.12
2017-08-02T08:09:34.068Z,89.73
2017-08-02T08:10:33.966Z,89.83
2017-08-02T08:11:33.968Z,89.73
2017-08-02T08:12:33.968Z,90.32
2017-08-02T08:13:33.967Z,89.64
2017-08-02T08:14:33.967Z,89.25
2017-08-02T08:15:33.970Z,88.95
2017-08-02T08:16:33.969Z,89.15
2017-08-02T08:17:33.661Z,88.21
2017-08-02T08:18:33.969Z,87.77
2017-08-02T08:19:33.660Z,86.93
2017-08-02T08:20:33.964Z,85.89
2017-08-02T08:21:34.068Z,85.35
2017-08-02T08:22:33.971Z,85.05
2017-08-02T08:23:33.966Z,84.8
2017-08-02T08:24:33.966Z,84.06
2017-08-02T08:25:33.970Z,83.31
2017-08-02T08:26:34.067Z,82.76
2017-08-02T08:27:34.065Z,82.21
2017-08-02T08:28:33.969Z,81.92
2017-08-02T08:29:34.068Z,82.07
2017-08-02T08:30:33.968Z,83.12
2017-08-02T08:31:33.657Z,83.27
2017-08-02T08:32:33.966Z,83.82
2017-08-02T08:33:33.977Z,83.48
2017-08-02T08:34:33.967Z,84.33
2017-08-02T08:35:33.967Z,84.33
2017-08-02T08:36:33.655Z,83.84
2017-08-02T08:37:33.965Z,83
2017-08-02T08:38:33.966Z,82.15
2017-08-02T08:39:33.965Z,80.88
2017-08-02T08:40:33.982Z,80.13
2017-08-02T08:41:34.062Z,78.86
2017-08-02T08:42:33.964Z,78.47
2017-08-02T08:43:33.966Z,78.88
2017-08-02T08:44:33.968Z,80.11
2017-08-02T08:45:33.961Z,78.47
2017-08-02T08:46:33.960Z,78.53
2017-08-02T08:47:34.064Z,77.32
2017-08-02T08:48:33.961Z,77.48
2017-08-02T08:49:33.962Z,77.59
2017-08-02T08:50:34.111Z,77.85
2017-08-02T08:51:33.962Z,78.3
2017-08-02T08:52:34.063Z,78.01
2017-08-02T08:53:34.058Z,76.9
2017-08-02T08:54:33.755Z,77
2017-08-02T08:55:33.959Z,76.61
2017-08-02T08:56:33.959Z,75.89
2017-08-02T08:57:33.657Z,75.59
2017-08-02T08:58:33.961Z,74.23
2017-08-02T08:59:33.960Z,73.55
2017-08-02T09:00:33.958Z,73.65
2017-08-02T09:01:33.957Z,72.92
2017-08-02T09:02:33.961Z,72.15
2017-08-02T09:03:34.058Z,70.1
2017-08-02T09:04:33.962Z,69.71
2017-08-02T09:05:33.955Z,70.1
2017-08-02T09:06:33.956Z,70.17
2017-08-02T09:07:33.959Z,69.97
2017-08-02T09:08:33.956Z,69.97
2017-08-02T09:09:33.955Z,69.68
2017-08-02T09:10:33.957Z,69.68
2017-08-02T09:11:34.056Z,69.84
2017-08-02T09:12:33.957Z,70.13
2017-08-02T09:13:33.954Z,70.23
2017-08-02T09:14:33.957Z,70.07
2017-08-02T09:15:33.953Z,70.42
2017-08-02T09:16:33.955Z,69.94
2017-08-02T09:17:33.799Z,70.42
2017-08-02T09:18:33.955Z,70.23
2017-08-02T09:19:33.960Z,69.94
2017-08-02T09:20:33.965Z,70.52
2017-08-02T09:21:33.949Z,70.81
2017-08-02T09:22:33.954Z,70.81
2017-08-02T09:23:33.950Z,70.91
2017-08-02T09:24:34.253Z,71.11
2017-08-02T09:25:33.650Z,70.81
2017-08-02T09:26:33.947Z,71.11
2017-08-02T09:27:33.947Z,70.52
2017-08-02T09:28:33.641Z,71.2
2017-08-02T09:29:34.053Z,71.3
2017-08-02T09:30:33.945Z,70.72
2017-08-02T09:31:33.945Z,70.23
2017-08-02T09:32:33.950Z,70.32
2017-08-02T09:33:33.638Z,69.74
2017-08-02T09:34:33.640Z,69.71
2017-08-02T09:35:33.945Z,69.51
2017-08-02T09:36:33.944Z,70.29
2017-08-02T09:37:33.943Z,70.2
2017-08-02T09:38:33.943Z,70.1
2017-08-02T09:39:33.637Z,70.55
2017-08-02T09:40:33.634Z,70.58
2017-08-02T09:41:33.942Z,69.9
2017-08-02T09:42:33.940Z,69.81
2017-08-02T09:43:33.939Z,69.38
2017-08-02T09:44:33.940Z,69.67
2017-08-02T09:45:33.938Z,69.67
2017-08-02T09:46:33.941Z,69.38
2017-08-02T09:47:33.939Z,69.77
2017-08-02T09:48:33.936Z,70.26
2017-08-02T09:49:33.937Z,69.96
2017-08-02T09:50:33.945Z,70.75
2017-08-02T09:51:33.938Z,70.16
2017-08-02T09:52:33.933Z,70.45
2017-08-02T09:53:33.934Z,70.55
2017-08-02T09:54:33.937Z,70.55
2017-08-02T09:55:33.932Z,70.55
2017-08-02T09:56:33.935Z,70.75
2017-08-02T09:57:34.033Z,69.96
2017-08-02T09:58:33.934Z,70.1
2017-08-02T09:59:33.928Z,70.49
2017-08-02T10:00:33.931Z,70.58
2017-08-02T10:01:34.027Z,71.07
2017-08-02T10:02:33.929Z,70.29
2017-08-02T10:03:33.935Z,70
2017-08-02T10:04:33.929Z,69.71
2017-08-02T10:05:33.925Z,69.42
2017-08-02T10:06:34.024Z,69.51
2017-08-02T10:07:33.620Z,69.71
2017-08-02T10:08:33.923Z,69.81
2017-08-02T10:09:34.073Z,69.51
2017-08-02T10:10:33.926Z,69.87
2017-08-02T10:11:33.614Z,69.96
2017-08-02T10:12:33.618Z,70.55
2017-08-02T10:13:33.920Z,69.77
2017-08-02T10:14:33.926Z,70.16
2017-08-02T10:15:33.919Z,70.26
2017-08-02T10:16:33.918Z,70.16
2017-08-02T10:17:33.711Z,69.64
2017-08-02T10:18:33.915Z,70.32
2017-08-02T10:19:33.761Z,70.65
2017-08-02T10:20:33.613Z,70.71
2017-08-02T10:21:33.607Z,70.75
2017-08-02T10:22:33.606Z,70.26
2017-08-02T10:23:33.911Z,70.16
2017-08-02T10:24:34.066Z,70.06
2017-08-02T10:25:33.909Z,70.06
2017-08-02T10:26:33.908Z,69.67
2017-08-02T10:27:33.709Z,69.67
2017-08-02T10:28:33.602Z,69.77
2017-08-02T10:29:34.111Z,69.87
2017-08-02T10:30:34.010Z,69.58
2017-08-02T10:31:33.907Z,69.51
2017-08-02T10:32:33.905Z,69.09
2017-08-02T10:33:33.906Z,69.19
2017-08-02T10:34:33.703Z,69.29
2017-08-02T10:35:33.904Z,69.77
2017-08-02T10:36:33.602Z,69.48
2017-08-02T10:37:33.601Z,69.67
2017-08-02T10:38:33.901Z,69.29
2017-08-02T10:39:33.900Z,69.67
2017-08-02T10:40:33.903Z,69.48
2017-08-02T10:41:33.899Z,69.67
2017-08-02T10:42:33.598Z,69.35
2017-08-02T10:43:33.594Z,69.58
2017-08-02T10:44:33.897Z,69.64
2017-08-02T10:45:33.998Z,69.45
2017-08-02T10:46:33.595Z,68.99
2017-08-02T10:47:33.897Z,69.38
2017-08-02T10:48:33.590Z,69.48
2017-08-02T10:49:33.897Z,69.77
2017-08-02T10:50:33.891Z,69.29
2017-08-02T10:51:33.894Z,69.09
2017-08-02T10:52:33.894Z,68.15
2017-08-02T10:53:33.894Z,67.76
2017-08-02T10:54:33.891Z,67.67
2017-08-02T10:55:33.582Z,66.99
2017-08-02T10:56:33.987Z,67.28
2017-08-02T10:57:33.886Z,66.89
2017-08-02T10:58:33.887Z,67.08
2017-08-02T10:59:33.887Z,66.99
2017-08-02T11:00:33.889Z,67.08
2017-08-02T11:01:33.982Z,66.4
2017-08-02T11:02:33.885Z,66.4
2017-08-02T11:03:33.883Z,66.79
2017-08-02T11:04:33.882Z,66.89
2017-08-02T11:05:33.888Z,66.89
2017-08-02T11:06:33.577Z,66.99
2017-08-02T11:07:33.887Z,67.08
2017-08-02T11:08:33.886Z,67.18
2017-08-02T11:09:33.573Z,66.31
2017-08-02T11:10:33.881Z,66.5
2017-08-02T11:11:33.886Z,65.92
2017-08-02T11:12:33.576Z,66.5
2017-08-02T11:13:33.884Z,65.53
2017-08-02T11:14:33.977Z,65.53
2017-08-02T11:15:33.978Z,65.53
2017-08-02T11:16:33.870Z,65.63
2017-08-02T11:17:33.871Z,65.43
2017-08-02T11:18:33.871Z,64.85
2017-08-02T11:19:33.872Z,65.82
2017-08-02T11:20:33.565Z,65.63
2017-08-02T11:21:33.871Z,65.72
2017-08-02T11:22:33.565Z,65.46
2017-08-02T11:23:33.870Z,65.37
2017-08-02T11:24:33.561Z,65.56
2017-08-02T11:25:33.866Z,64.49
2017-08-02T11:26:33.562Z,63.81
2017-08-02T11:27:33.966Z,63.32
2017-08-02T11:28:33.866Z,62.35
2017-08-02T11:29:33.869Z,61.51
2017-08-02T11:30:33.865Z,61.38
2017-08-02T11:31:33.866Z,61.02
2017-08-02T11:32:33.864Z,60.79
2017-08-02T11:33:33.862Z,61.47
2017-08-02T11:34:33.858Z,61.11
2017-08-02T11:35:33.557Z,60.5
2017-08-02T11:36:33.958Z,59.17
2017-08-02T11:37:33.867Z,59.23
2017-08-02T11:38:33.855Z,59.92
2017-08-02T11:39:33.858Z,60.79
2017-08-02T11:40:33.958Z,60.99
2017-08-02T11:41:33.952Z,61.47
2017-08-02T11:42:33.857Z,61.38
2017-08-02T11:43:33.851Z,60.99
2017-08-02T11:44:33.856Z,60.99
2017-08-02T11:45:33.854Z,60.7
2017-08-02T11:46:34.002Z,60.31
2017-08-02T11:47:33.853Z,60.21
2017-08-02T11:48:33.546Z,60.79
2017-08-02T11:49:33.852Z,60.11
2017-08-02T11:50:33.548Z,60.5
2017-08-02T11:51:33.854Z,60.11
2017-08-02T11:52:33.850Z,60.02
2017-08-02T11:53:33.845Z,60.02
2017-08-02T11:54:33.542Z,59.66
2017-08-02T11:55:33.847Z,59.82
2017-08-02T11:56:33.849Z,60.21
2017-08-02T11:57:33.543Z,60.82
2017-08-02T11:58:33.843Z,60.34
2017-08-02T11:59:33.846Z,60.34
2017-08-02T12:00:33.541Z,60.63
2017-08-02T12:01:33.534Z,60.5
2017-08-02T12:02:33.634Z,60.44
2017-08-02T12:03:33.844Z,60.72
2017-08-02T12:04:33.840Z,61.02
2017-08-02T12:05:33.533Z,61.21
2017-08-02T12:06:33.836Z,60.82
2017-08-02T12:07:33.534Z,60.82
2017-08-02T12:08:33.852Z,60.92
2017-08-02T12:09:33.837Z,61.31
2017-08-02T12:10:33.839Z,61.02
2017-08-02T12:11:33.836Z,60.82
2017-08-02T12:12:33.627Z,60.14
2017-08-02T12:13:33.835Z,59.66
2017-08-02T12:14:33.830Z,59.56
2017-08-02T12:15:33.930Z,59.36
2017-08-02T12:16:33.528Z,59.27
2017-08-02T12:17:33.933Z,59.17
2017-08-02T12:18:33.930Z,59.17
2017-08-02T12:19:33.825Z,59.27
2017-08-02T12:20:33.835Z,59.75
2017-08-02T12:21:33.829Z,60.05
2017-08-02T12:22:33.519Z,59.95
2017-08-02T12:23:33.927Z,59.95
2017-08-02T12:24:33.935Z,59.95
2017-08-02T12:25:33.822Z,60.14
2017-08-02T12:26:33.519Z,60.44
2017-08-02T12:27:33.828Z,60.24
2017-08-02T12:28:33.823Z,60.82
2017-08-02T12:29:33.818Z,61.02
2017-08-02T12:30:33.921Z,60.82
2017-08-02T12:31:33.819Z,60.53
2017-08-02T12:32:33.514Z,60.53
2017-08-02T12:33:33.821Z,60.63
2017-08-02T12:34:33.621Z,60.14
2017-08-02T12:35:33.818Z,60.82
2017-08-02T12:36:33.519Z,60.82
2017-08-02T12:37:33.816Z,60.82
2017-08-02T12:38:33.510Z,60.44
2017-08-02T12:39:33.817Z,59.36
2017-08-02T12:40:33.815Z,59.27
2017-08-02T12:41:33.816Z,59.56
2017-08-02T12:42:33.815Z,59.75
2017-08-02T12:43:33.508Z,59.66
2017-08-02T12:44:33.506Z,59.95
2017-08-02T12:45:33.504Z,60.63
2017-08-02T12:46:33.503Z,60.82
2017-08-02T12:47:33.500Z,60.82
2017-08-02T12:48:33.621Z,60.72
2017-08-02T12:49:33.503Z,60.72
2017-08-02T12:50:33.500Z,60.72
2017-08-02T12:51:33.807Z,60.05
2017-08-02T12:52:33.803Z,59.56
2017-08-02T12:53:33.497Z,60.34